Time;durP1;ratioP1;P1;durP2;ratioP2;P2;SDS_P1;SDS_P2;PMS_P1;PMS_P2;Temp;Humidity;BMP_temperature;BMP_pressure;BME280_temperature;BME280_humidity;BME280_pressure;Samples;Min_cycle;Max_cycle;Signal;HPM_P1;HPM_P2
2022/10/02 00:02:12;;;;;;;19.10;10.17;;;14.40;99.90;;;;;;5025104;28;20220;-53
2022/10/02 00:05:04;;;;;;;17.10;9.37;;;14.30;99.90;;;;;;5026398;28;20207;-53
2022/10/02 00:07:47;;;;;;;17.63;7.67;;;14.30;99.90;;;;;;5026790;28;20197;-53
2022/10/02 00:10:21;;;;;;;16.50;8.77;;;14.20;99.90;;;;;;5025233;28;20211;-54
2022/10/02 00:12:53;;;;;;;17.47;8.00;;;14.10;99.90;;;;;;5027283;28;20196;-52
2022/10/02 00:15:24;;;;;;;21.47;7.10;;;14.00;99.90;;;;;;5024480;28;20216;-52
2022/10/02 00:17:54;;;;;;;14.83;6.57;;;13.90;99.90;;;;;;5027929;28;20224;-53
2022/10/02 00:20:27;;;;;;;17.47;6.33;;;13.90;99.90;;;;;;5022909;28;20216;-53
2022/10/02 00:22:57;;;;;;;22.97;5.60;;;13.80;99.90;;;;;;5039673;28;20204;-54
2022/10/02 00:25:34;;;;;;;20.57;5.77;;;13.80;99.90;;;;;;5025734;28;20684;-52
2022/10/02 00:28:05;;;;;;;16.13;6.00;;;13.90;99.90;;;;;;5024867;28;20192;-53
2022/10/02 00:30:40;;;;;;;12.30;5.87;;;13.90;99.90;;;;;;5025694;28;20198;-53
2022/10/02 00:33:46;;;;;;;16.33;5.30;;;13.90;99.90;;;;;;5027961;28;20572;-56
2022/10/02 00:36:32;;;;;;;10.93;5.07;;;13.90;99.90;;;;;;5029416;28;20572;-53
2022/10/02 00:39:15;;;;;;;18.70;4.90;;;13.80;99.90;;;;;;5024571;28;20205;-52
2022/10/02 00:41:52;;;;;;;18.23;5.67;;;13.70;99.90;;;;;;5028417;28;20197;-53
2022/10/02 00:44:30;;;;;;;16.67;4.93;;;13.70;99.90;;;;;;5028339;28;20204;-53
2022/10/02 00:47:20;;;;;;;15.73;4.33;;;13.70;99.90;;;;;;5029122;28;20581;-53
2022/10/02 00:49:56;;;;;;;17.23;4.07;;;13.70;99.90;;;;;;5027909;28;20195;-52
2022/10/02 00:52:44;;;;;;;15.30;4.43;;;13.70;99.90;;;;;;5026784;28;20227;-53
2022/10/02 00:55:19;;;;;;;12.97;4.17;;;13.60;99.90;;;;;;5024593;28;20199;-52
2022/10/02 00:58:04;;;;;;;14.77;3.80;;;13.70;99.90;;;;;;5026247;28;20203;-55
2022/10/02 01:00:31;;;;;;;18.37;3.93;;;13.80;99.90;;;;;;5021451;28;20210;-53
2022/10/02 01:03:09;;;;;;;17.93;4.00;;;13.70;99.90;;;;;;5026642;28;20216;-56
2022/10/02 01:05:36;;;;;;;14.60;3.60;;;13.80;99.90;;;;;;5029190;28;20632;-52
2022/10/02 01:08:07;;;;;;;16.13;3.80;;;13.80;99.90;;;;;;5027185;28;20196;-53
2022/10/02 01:10:36;;;;;;;16.37;3.73;;;13.80;99.90;;;;;;5025662;28;20210;-52
2022/10/02 01:13:05;;;;;;;14.60;3.87;;;13.70;99.90;;;;;;5024195;28;20301;-52
2022/10/02 01:15:36;;;;;;;13.37;3.63;;;13.80;99.90;;;;;;5024925;28;20648;-52
2022/10/02 01:18:05;;;;;;;14.10;3.67;;;13.80;99.90;;;;;;5025903;28;20197;-53
2022/10/02 01:20:40;;;;;;;15.70;4.03;;;13.80;99.90;;;;;;5026602;28;20200;-52
2022/10/02 01:23:26;;;;;;;14.23;4.20;;;13.80;99.90;;;;;;5026539;28;20229;-53
2022/10/02 01:25:54;;;;;;;15.40;3.57;;;13.90;99.90;;;;;;5020216;28;20213;-53
2022/10/02 01:28:21;;;;;;;14.73;3.23;;;13.80;99.90;;;;;;5030200;28;20242;-52
2022/10/02 01:30:52;;;;;;;20.73;3.67;;;13.90;99.90;;;;;;5022161;28;20194;-52
2022/10/02 01:33:19;;;;;;;14.10;3.70;;;13.90;99.90;;;;;;5018734;28;20214;-52
2022/10/02 01:35:47;;;;;;;15.23;3.60;;;13.90;99.90;;;;;;5020521;28;20334;-53
2022/10/02 01:38:18;;;;;;;18.83;3.70;;;13.90;99.90;;;;;;5019828;28;20217;-52
2022/10/02 01:40:45;;;;;;;12.73;3.37;;;13.90;99.90;;;;;;5029634;28;20199;-52
2022/10/02 01:43:18;;;;;;;14.10;3.70;;;13.90;99.90;;;;;;5022550;28;20264;-53
2022/10/02 01:46:03;;;;;;;14.00;2.70;;;13.80;99.90;;;;;;5033251;28;20309;-53
2022/10/02 01:48:54;;;;;;;15.80;3.40;;;13.80;99.90;;;;;;5032507;28;20208;-53
2022/10/02 01:51:54;;;;;;;19.30;3.53;;;13.80;99.90;;;;;;5022663;28;20201;-53
2022/10/02 01:54:39;;;;;;;18.37;3.60;;;13.80;99.90;;;;;;5025646;28;20198;-51
2022/10/02 01:57:42;;;;;;;15.80;3.40;;;13.80;99.90;;;;;;5027708;28;20622;-52
2022/10/02 02:00:14;;;;;;;15.80;3.40;;;13.80;99.90;;;;;;5014609;28;20202;-52
2022/10/02 02:03:09;;;;;;;17.63;3.10;;;13.90;99.90;;;;;;5022305;28;20303;-53
2022/10/02 02:05:54;;;;;;;17.60;3.73;;;13.90;99.90;;;;;;5013103;28;20200;-52
2022/10/02 02:08:33;;;;;;;17.97;3.37;;;13.90;99.90;;;;;;5020191;28;20197;-52
2022/10/02 02:11:12;;;;;;;16.70;4.10;;;13.80;99.90;;;;;;5020782;28;20298;-52
2022/10/02 02:13:47;;;;;;;18.23;4.07;;;13.90;99.90;;;;;;5026967;28;20210;-53
2022/10/02 02:16:19;;;;;;;17.60;4.90;;;13.80;99.90;;;;;;5027975;28;20198;-53
2022/10/02 02:19:26;;;;;;;17.93;3.27;;;13.80;99.90;;;;;;5026523;28;20207;-53
2022/10/02 02:22:02;;;;;;;17.50;3.73;;;13.80;99.90;;;;;;5018609;28;20204;-52
2022/10/02 02:24:56;;;;;;;16.07;4.10;;;13.80;99.90;;;;;;5028337;28;20289;-53
2022/10/02 02:27:26;;;;;;;16.30;4.03;;;13.80;99.90;;;;;;5038165;28;20223;-52
2022/10/02 02:29:59;;;;;;;18.40;3.27;;;13.90;99.90;;;;;;5043230;28;20198;-52
2022/10/02 02:32:30;;;;;;;16.00;3.80;;;13.90;99.90;;;;;;5025841;28;20211;-52
2022/10/02 02:35:03;;;;;;;21.07;3.53;;;13.90;99.90;;;;;;5024995;28;20718;-53
2022/10/02 02:37:33;;;;;;;16.80;3.40;;;13.80;99.90;;;;;;5021910;28;20539;-56
2022/10/02 02:40:08;;;;;;;16.97;4.77;;;13.80;99.90;;;;;;5034108;28;20291;-53
2022/10/02 02:43:05;;;;;;;15.83;3.40;;;13.90;99.90;;;;;;5029424;28;20241;-53
2022/10/02 02:45:40;;;;;;;15.43;3.63;;;14.00;99.90;;;;;;5027017;28;20607;-52
2022/10/02 02:48:33;;;;;;;18.10;3.50;;;13.90;99.90;;;;;;5023452;28;20237;-52
2022/10/02 02:51:09;;;;;;;15.73;3.50;;;13.90;99.90;;;;;;5033836;28;20676;-53
2022/10/02 02:53:50;;;;;;;19.43;3.73;;;13.90;99.90;;;;;;5033390;28;20251;-53
2022/10/02 02:56:19;;;;;;;16.60;3.90;;;13.90;99.90;;;;;;5019307;28;20691;-54
2022/10/02 02:58:58;;;;;;;21.90;3.73;;;13.90;99.90;;;;;;5016609;28;20197;-53
2022/10/02 03:01:25;;;;;;;14.30;3.17;;;13.80;99.90;;;;;;5029095;28;20224;-53
2022/10/02 03:03:52;;;;;;;21.60;4.50;;;13.80;99.90;;;;;;5026438;28;20717;-53
2022/10/02 03:06:33;;;;;;;21.13;5.60;;;13.80;99.90;;;;;;5033249;28;20606;-53
2022/10/02 03:09:01;;;;;;;16.90;4.23;;;13.90;99.90;;;;;;5031710;28;20565;-53
2022/10/02 03:11:33;;;;;;;13.93;3.53;;;13.80;99.90;;;;;;5028664;28;20262;-54
2022/10/02 03:14:26;;;;;;;22.13;3.80;;;13.80;99.90;;;;;;5027869;28;20211;-58
2022/10/02 03:16:56;;;;;;;17.87;3.93;;;13.80;99.90;;;;;;5034108;28;20601;-52
2022/10/02 03:19:25;;;;;;;17.67;4.20;;;13.80;99.90;;;;;;5026274;28;20212;-53
2022/10/02 03:21:55;;;;;;;18.73;4.40;;;13.80;99.90;;;;;;5023380;28;20206;-52
2022/10/02 03:24:30;;;;;;;9.43;3.20;;;13.90;99.90;;;;;;5033295;28;20570;-53
2022/10/02 03:27:01;;;;;;;17.10;4.03;;;13.90;99.90;;;;;;5032958;28;20220;-53
2022/10/02 03:29:48;;;;;;;14.27;3.60;;;13.90;99.90;;;;;;5026665;28;20650;-52
2022/10/02 03:32:17;;;;;;;17.20;3.53;;;13.80;99.90;;;;;;5025152;28;20243;-52
2022/10/02 03:34:43;;;;;;;14.33;2.93;;;13.80;99.90;;;;;;5014333;28;20203;-53
2022/10/02 03:37:10;;;;;;;17.93;2.90;;;13.80;99.90;;;;;;5014228;28;20352;-53
2022/10/02 03:39:44;;;;;;;25.23;3.43;;;13.80;99.90;;;;;;5030841;28;20209;-52
2022/10/02 03:42:13;;;;;;;15.63;3.57;;;13.80;99.90;;;;;;5019194;28;20208;-53
2022/10/02 03:44:40;;;;;;;13.57;3.10;;;13.80;99.90;;;;;;5032756;28;20211;-52
2022/10/02 03:47:07;;;;;;;14.77;3.63;;;13.80;99.90;;;;;;5027272;28;20244;-53
2022/10/02 03:49:34;;;;;;;15.20;3.67;;;13.80;99.90;;;;;;5027576;28;20203;-52
2022/10/02 03:52:01;;;;;;;20.97;3.00;;;13.90;99.90;;;;;;5029978;28;20601;-53
2022/10/02 03:54:32;;;;;;;14.03;3.67;;;13.80;99.90;;;;;;5032548;28;20205;-52
2022/10/02 03:57:04;;;;;;;15.23;3.30;;;13.90;99.90;;;;;;5025539;28;20215;-53
2022/10/02 03:59:49;;;;;;;13.87;3.00;;;13.90;99.90;;;;;;5019229;28;20208;-53
2022/10/02 04:02:35;;;;;;;14.10;3.27;;;13.90;99.90;;;;;;5029507;28;20222;-52
2022/10/02 04:05:17;;;;;;;14.77;3.47;;;13.90;99.90;;;;;;5018768;28;20203;-52
2022/10/02 04:07:48;;;;;;;15.07;3.43;;;13.80;99.90;;;;;;5037218;28;20693;-53
2022/10/02 04:10:25;;;;;;;15.73;3.10;;;13.80;99.90;;;;;;5037093;28;20284;-54
2022/10/02 04:13:02;;;;;;;12.90;3.00;;;13.80;99.90;;;;;;5017377;28;20293;-53
2022/10/02 04:15:52;;;;;;;11.93;2.80;;;13.70;99.90;;;;;;5020431;28;20285;-53
2022/10/02 04:18:31;;;;;;;14.00;3.13;;;13.80;99.90;;;;;;5025514;28;20208;-53
2022/10/02 04:21:08;;;;;;;11.97;2.50;;;13.80;99.90;;;;;;5031688;28;20212;-53
2022/10/02 04:23:42;;;;;;;8.10;2.30;;;13.70;99.90;;;;;;5030208;28;20666;-53
2022/10/02 04:26:22;;;;;;;12.80;2.73;;;13.70;99.90;;;;;;5023047;28;20567;-54
2022/10/02 04:28:55;;;;;;;8.07;2.03;;;13.70;99.90;;;;;;5031548;28;20200;-57
2022/10/02 04:31:26;;;;;;;13.73;3.73;;;13.70;99.90;;;;;;5016837;28;20210;-53
2022/10/02 04:34:01;;;;;;;14.67;3.60;;;13.70;99.90;;;;;;5026395;28;20660;-52
2022/10/02 04:36:35;;;;;;;9.03;2.47;;;13.70;99.90;;;;;;5019821;28;20283;-53
2022/10/02 04:39:02;;;;;;;10.00;2.23;;;13.70;99.90;;;;;;5023529;28;20194;-52
2022/10/02 04:41:53;;;;;;;9.20;1.93;;;13.60;99.90;;;;;;5022379;28;20334;-53
2022/10/02 04:44:50;;;;;;;9.40;1.93;;;13.60;99.90;;;;;;5023158;28;20230;-54
2022/10/02 04:47:32;;;;;;;8.07;1.63;;;13.60;99.90;;;;;;5031864;28;20258;-54
2022/10/02 04:50:20;;;;;;;8.10;1.60;;;13.60;99.90;;;;;;5029394;28;20200;-54
2022/10/02 04:53:25;;;;;;;8.07;2.10;;;13.60;99.90;;;;;;5020060;28;20246;-54
2022/10/02 04:56:15;;;;;;;8.53;1.60;;;13.60;99.90;;;;;;5021503;28;20213;-55
2022/10/02 04:59:03;;;;;;;5.10;1.70;;;13.60;99.90;;;;;;5026867;28;20264;-53
2022/10/02 05:02:05;;;;;;;6.33;1.73;;;13.60;99.90;;;;;;5030609;28;20224;-54
2022/10/02 05:04:52;;;;;;;9.17;1.90;;;13.60;99.90;;;;;;5023090;28;20701;-53
2022/10/02 05:07:34;;;;;;;8.27;2.50;;;13.60;99.90;;;;;;5012745;28;20317;-53
2022/10/02 05:10:22;;;;;;;8.13;1.97;;;13.60;99.90;;;;;;5025690;28;20688;-53
2022/10/02 05:13:07;;;;;;;8.70;2.20;;;13.60;99.90;;;;;;5016656;28;20565;-53
2022/10/02 05:15:54;;;;;;;11.37;2.03;;;13.60;99.90;;;;;;5012112;28;20288;-53
2022/10/02 05:18:48;;;;;;;10.50;2.37;;;13.60;99.90;;;;;;5012578;28;20212;-53
2022/10/02 05:21:32;;;;;;;6.53;1.97;;;13.60;99.90;;;;;;5032242;28;20219;-53
2022/10/02 05:24:08;;;;;;;11.77;2.20;;;13.60;99.90;;;;;;5018697;28;20658;-51
2022/10/02 05:26:47;;;;;;;6.60;1.83;;;13.60;99.90;;;;;;5020018;28;20241;-52
2022/10/02 05:29:33;;;;;;;10.87;2.70;;;13.60;99.90;;;;;;5027382;28;20197;-52
2022/10/02 05:32:37;;;;;;;9.40;2.40;;;13.60;99.90;;;;;;5029712;28;20216;-52
2022/10/02 05:35:07;;;;;;;11.40;2.30;;;13.60;99.90;;;;;;5029011;28;20708;-52
2022/10/02 05:37:52;;;;;;;13.00;2.47;;;13.60;99.90;;;;;;5031483;28;20211;-53
2022/10/02 05:40:49;;;;;;;11.57;3.17;;;13.70;99.90;;;;;;5019360;28;20716;-52
2022/10/02 05:43:27;;;;;;;14.17;2.83;;;13.70;99.90;;;;;;5014240;28;20394;-53
2022/10/02 05:45:57;;;;;;;13.57;2.60;;;13.70;99.90;;;;;;5019796;28;20195;-53
2022/10/02 05:48:36;;;;;;;15.67;2.77;;;13.80;99.90;;;;;;5016437;28;20729;-52
2022/10/02 05:51:15;;;;;;;10.23;3.10;;;13.70;99.90;;;;;;5017110;28;20207;-53
2022/10/02 05:53:52;;;;;;;11.93;3.50;;;13.80;99.90;;;;;;5024232;28;20339;-53
2022/10/02 05:56:26;;;;;;;14.33;2.47;;;13.80;99.90;;;;;;5019118;28;20204;-53
2022/10/02 05:58:57;;;;;;;16.60;3.67;;;13.80;99.90;;;;;;5013706;28;20214;-53
2022/10/02 06:01:28;;;;;;;12.87;2.50;;;13.80;99.90;;;;;;5010779;28;20228;-53
2022/10/02 06:03:55;;;;;;;13.20;2.60;;;13.90;99.90;;;;;;5018447;28;20193;-52
2022/10/02 06:06:42;;;;;;;13.33;2.67;;;13.90;99.90;;;;;;5020791;28;20672;-52
2022/10/02 06:09:44;;;;;;;10.10;2.33;;;13.80;99.90;;;;;;5030740;28;20202;-52
2022/10/02 06:12:19;;;;;;;10.00;2.50;;;13.80;99.90;;;;;;5022978;28;20212;-52
2022/10/02 06:14:50;;;;;;;11.43;2.77;;;13.80;99.90;;;;;;5033240;28;20622;-52
2022/10/02 06:17:24;;;;;;;12.40;2.60;;;13.80;99.90;;;;;;5028822;28;20218;-53
2022/10/02 06:19:59;;;;;;;13.07;2.90;;;13.70;99.90;;;;;;5021062;28;20202;-53
2022/10/02 06:22:38;;;;;;;15.10;2.90;;;13.80;99.90;;;;;;5030162;28;20200;-52
2022/10/02 06:25:22;;;;;;;14.40;2.90;;;13.90;99.90;;;;;;5030486;28;20332;-52
2022/10/02 06:28:09;;;;;;;14.70;4.57;;;13.90;99.90;;;;;;5026179;28;20568;-52
2022/10/02 06:30:41;;;;;;;9.33;2.73;;;13.90;99.90;;;;;;5022027;28;20197;-52
2022/10/02 06:33:22;;;;;;;16.80;3.00;;;13.90;99.90;;;;;;5026695;28;20611;-53
2022/10/02 06:36:07;;;;;;;17.73;3.33;;;13.90;99.90;;;;;;5025581;28;20572;-51
2022/10/02 06:38:44;;;;;;;13.43;3.17;;;13.90;99.90;;;;;;5034369;28;20213;-53
2022/10/02 06:41:28;;;;;;;16.47;4.90;;;13.90;99.90;;;;;;5019412;28;20216;-51
2022/10/02 06:44:02;;;;;;;14.93;3.17;;;13.90;99.90;;;;;;5027065;28;20231;-53
2022/10/02 06:46:44;;;;;;;12.77;2.93;;;14.00;99.90;;;;;;5019627;28;20217;-53
2022/10/02 06:49:28;;;;;;;13.33;2.80;;;14.00;99.90;;;;;;5019293;28;20219;-53
2022/10/02 06:52:11;;;;;;;15.00;3.50;;;14.10;99.90;;;;;;5030079;28;20878;-53
2022/10/02 06:54:49;;;;;;;17.83;4.33;;;14.20;99.90;;;;;;5015076;28;20197;-53
2022/10/02 06:57:47;;;;;;;12.50;3.00;;;14.10;99.90;;;;;;5025222;28;20205;-53
2022/10/02 07:00:20;;;;;;;12.83;2.77;;;14.10;99.90;;;;;;5020453;28;20247;-53
2022/10/02 07:03:12;;;;;;;15.33;3.30;;;14.10;99.90;;;;;;5020482;28;20723;-53
2022/10/02 07:05:39;;;;;;;22.27;4.30;;;14.10;99.90;;;;;;5016563;28;20202;-53
2022/10/02 07:08:24;;;;;;;18.07;3.40;;;14.20;99.90;;;;;;5020240;28;20245;-53
2022/10/02 07:11:13;;;;;;;18.37;2.87;;;14.10;99.90;;;;;;5019401;28;20671;-53
2022/10/02 07:13:55;;;;;;;14.70;3.17;;;14.10;99.90;;;;;;5021922;28;20653;-53
2022/10/02 07:16:37;;;;;;;21.20;3.27;;;14.20;99.90;;;;;;5027754;28;20200;-53
2022/10/02 07:19:08;;;;;;;19.13;3.57;;;14.20;99.90;;;;;;5020154;28;20212;-53
2022/10/02 07:21:53;;;;;;;14.27;3.40;;;14.20;99.90;;;;;;5023177;28;20202;-53
2022/10/02 07:24:48;;;;;;;19.57;3.43;;;14.20;99.90;;;;;;5033725;28;20720;-53
2022/10/02 07:27:42;;;;;;;13.83;3.07;;;14.30;99.90;;;;;;5025945;28;20252;-53
2022/10/02 07:30:16;;;;;;;13.63;2.73;;;14.30;99.90;;;;;;5022414;28;20276;-53
2022/10/02 07:33:20;;;;;;;16.53;3.27;;;14.30;99.90;;;;;;5022784;28;20212;-53
2022/10/02 07:36:25;;;;;;;18.03;3.10;;;14.30;99.90;;;;;;5030668;28;20699;-53
2022/10/02 07:39:30;;;;;;;14.17;2.60;;;14.40;99.90;;;;;;5017637;28;20202;-53
2022/10/02 07:42:03;;;;;;;10.07;2.57;;;14.50;99.90;;;;;;5026311;28;20222;-53
2022/10/02 07:44:36;;;;;;;12.57;3.03;;;14.60;99.90;;;;;;5028744;28;20224;-53
2022/10/02 07:47:23;;;;;;;9.07;2.23;;;14.70;99.90;;;;;;5029410;28;20697;-53
2022/10/02 07:50:12;;;;;;;14.80;2.93;;;14.70;99.90;;;;;;5025243;28;20204;-53
2022/10/02 07:53:05;;;;;;;11.50;3.07;;;14.70;99.90;;;;;;5024327;28;20238;-53
2022/10/02 07:55:37;;;;;;;19.37;2.90;;;14.80;99.90;;;;;;5024271;28;20200;-53
2022/10/02 07:58:15;;;;;;;13.13;3.33;;;14.80;99.90;;;;;;5034609;28;20572;-53
2022/10/02 08:00:49;;;;;;;12.13;2.63;;;14.80;99.90;;;;;;5031308;28;20528;-52
2022/10/02 08:03:21;;;;;;;12.37;2.27;;;14.90;99.90;;;;;;5012496;28;20207;-53
2022/10/02 08:05:54;;;;;;;12.57;2.70;;;14.80;99.90;;;;;;5027183;28;20212;-53
2022/10/02 08:08:24;;;;;;;11.93;2.70;;;14.80;99.90;;;;;;5018844;28;20307;-53
2022/10/02 08:10:56;;;;;;;15.53;2.73;;;14.90;99.90;;;;;;5024545;28;20198;-53
2022/10/02 08:13:31;;;;;;;10.40;2.77;;;14.90;99.90;;;;;;5031895;28;20202;-53
2022/10/02 08:15:58;;;;;;;16.07;2.80;;;14.90;99.90;;;;;;5030827;28;20205;-53
2022/10/02 08:18:31;;;;;;;7.30;2.30;;;15.00;99.90;;;;;;5027147;28;20256;-53
2022/10/02 08:21:03;;;;;;;10.97;2.40;;;14.90;99.90;;;;;;5030953;28;20658;-53
2022/10/02 08:23:44;;;;;;;11.40;2.40;;;15.00;99.90;;;;;;5022034;28;20202;-52
2022/10/02 08:26:23;;;;;;;9.77;2.20;;;15.00;99.90;;;;;;5027257;28;20312;-53
2022/10/02 08:29:08;;;;;;;9.90;2.20;;;15.00;99.90;;;;;;5015388;28;20311;-55
2022/10/02 08:31:35;;;;;;;10.23;2.20;;;15.20;99.90;;;;;;5026362;28;20204;-52
2022/10/02 08:34:22;;;;;;;6.90;2.10;;;15.20;99.90;;;;;;5024121;28;20263;-54
2022/10/02 08:36:58;;;;;;;9.83;2.70;;;15.20;99.90;;;;;;5018322;28;20588;-53
2022/10/02 08:39:35;;;;;;;16.70;2.53;;;15.20;99.90;;;;;;5024302;28;20210;-53
2022/10/02 08:42:42;;;;;;;9.03;3.47;;;15.30;99.90;;;;;;5027118;28;20204;-53
2022/10/02 08:45:34;;;;;;;9.20;2.70;;;15.40;99.90;;;;;;4666057;28;10000509;-53
2022/10/02 08:48:22;;;;;;;8.00;2.47;;;15.40;99.90;;;;;;5019334;28;20225;-53
2022/10/02 08:51:26;;;;;;;11.87;2.07;;;15.60;99.90;;;;;;5026429;28;20199;-53
2022/10/02 08:54:12;;;;;;;13.97;2.60;;;15.70;99.90;;;;;;5020070;28;20309;-54
2022/10/02 08:57:16;;;;;;;8.03;2.13;;;15.80;99.90;;;;;;5026229;28;20191;-53
2022/10/02 09:00:08;;;;;;;10.47;2.20;;;15.70;99.90;;;;;;5029608;28;20215;-53
2022/10/02 09:03:12;;;;;;;12.30;2.23;;;15.80;99.90;;;;;;5020693;28;20312;-53
2022/10/02 09:05:59;;;;;;;11.00;2.03;;;15.80;99.90;;;;;;5020746;28;20196;-55
2022/10/02 09:08:47;;;;;;;5.90;1.40;;;15.80;99.90;;;;;;5018539;28;20216;-53
2022/10/02 09:11:36;;;;;;;9.77;2.30;;;15.70;99.90;;;;;;5029934;28;20653;-54
2022/10/02 09:14:18;;;;;;;10.60;1.90;;;15.80;99.90;;;;;;5025274;28;20235;-52
2022/10/02 09:17:12;;;;;;;16.43;2.70;;;15.70;99.90;;;;;;5015591;28;20197;-52
2022/10/02 09:19:48;;;;;;;13.97;2.47;;;15.90;99.90;;;;;;5020428;28;20681;-53
2022/10/02 09:22:46;;;;;;;7.10;2.00;;;16.10;99.90;;;;;;5029967;28;20208;-52
2022/10/02 09:25:22;;;;;;;8.37;1.97;;;16.10;99.90;;;;;;5025991;28;20214;-53
2022/10/02 09:27:58;;;;;;;12.53;2.80;;;16.10;99.90;;;;;;5031270;28;20586;-53
2022/10/02 09:30:34;;;;;;;11.07;2.30;;;15.90;99.90;;;;;;5016268;28;20254;-53
2022/10/02 09:33:15;;;;;;;9.77;2.10;;;15.90;99.90;;;;;;5020225;28;20195;-53
2022/10/02 09:36:08;;;;;;;6.10;1.80;;;16.00;99.90;;;;;;5029336;28;20196;-53
2022/10/02 09:39:03;;;;;;;9.47;2.43;;;16.00;99.90;;;;;;5015921;28;20204;-53
2022/10/02 09:42:18;;;;;;;10.60;1.80;;;16.30;99.90;;;;;;5030577;28;20243;-54
2022/10/02 09:45:19;;;;;;;8.87;2.23;;;16.10;99.90;;;;;;5044266;28;20206;-53
2022/10/02 09:48:05;;;;;;;8.23;2.10;;;16.10;99.90;;;;;;5015869;28;20218;-53
2022/10/02 09:51:04;;;;;;;8.17;2.43;;;16.20;99.90;;;;;;5031704;28;20733;-53
2022/10/02 09:54:05;;;;;;;10.77;1.97;;;16.20;99.90;;;;;;5017491;28;20256;-53
2022/10/02 09:57:03;;;;;;;9.57;2.07;;;16.30;99.90;;;;;;5018426;28;20191;-53
2022/10/02 09:59:57;;;;;;;13.50;1.83;;;16.40;99.90;;;;;;5017248;28;20202;-53
2022/10/02 10:02:51;;;;;;;10.43;1.47;;;16.50;99.90;;;;;;5016523;28;20694;-53
2022/10/02 10:05:41;;;;;;;9.13;1.70;;;16.70;99.90;;;;;;5014120;28;20212;-53
2022/10/02 10:08:45;;;;;;;11.97;3.13;;;16.80;99.90;;;;;;5016794;28;20240;-53
2022/10/02 10:11:31;;;;;;;5.67;1.67;;;16.90;99.90;;;;;;5018102;28;20203;-53
2022/10/02 10:14:23;;;;;;;10.93;1.90;;;16.90;99.90;;;;;;5016523;28;20239;-53
2022/10/02 10:17:08;;;;;;;10.23;1.60;;;17.00;99.90;;;;;;5011472;28;20214;-54
2022/10/02 10:20:02;;;;;;;9.27;1.73;;;17.00;99.90;;;;;;5017062;28;20652;-53
2022/10/02 10:23:06;;;;;;;8.57;1.70;;;16.90;99.90;;;;;;5017409;28;20673;-52
2022/10/02 10:25:49;;;;;;;11.07;2.70;;;16.60;99.90;;;;;;5015677;28;20210;-54
2022/10/02 10:28:49;;;;;;;7.33;1.90;;;16.80;99.90;;;;;;5018106;28;20297;-53
2022/10/02 10:31:44;;;;;;;13.33;2.00;;;16.90;99.90;;;;;;5011628;28;20551;-53
2022/10/02 10:34:22;;;;;;;5.97;1.60;;;16.90;99.90;;;;;;5019031;28;20215;-52
2022/10/02 10:39:47;;;;;;;8.17;1.90;;;16.90;99.90;;;;;;5013258;28;20294;-53
2022/10/02 10:42:46;;;;;;;8.80;1.80;;;16.70;99.90;;;;;;5018963;28;20207;-53
2022/10/02 10:45:40;;;;;;;11.63;2.00;;;16.90;99.90;;;;;;5014560;28;20201;-53
2022/10/02 10:48:32;;;;;;;8.03;1.97;;;17.00;99.90;;;;;;5017184;28;20223;-53
2022/10/02 10:51:13;;;;;;;5.40;1.80;;;17.10;99.90;;;;;;5012161;28;20329;-53
2022/10/02 10:54:16;;;;;;;8.20;1.80;;;17.00;99.90;;;;;;5016784;28;20323;-53
2022/10/02 10:56:49;;;;;;;10.23;2.10;;;17.00;99.90;;;;;;5015686;28;20206;-52
2022/10/02 10:59:43;;;;;;;6.73;1.47;;;17.00;99.90;;;;;;5012698;28;20250;-51
2022/10/02 11:02:35;;;;;;;6.70;1.47;;;16.90;99.90;;;;;;5013326;28;20286;-50
2022/10/02 11:05:16;;;;;;;10.27;1.83;;;16.80;99.90;;;;;;5015358;28;20234;-52
2022/10/02 11:07:52;;;;;;;12.70;2.57;;;17.00;99.90;;;;;;5017249;28;20212;-50
2022/10/02 11:10:42;;;;;;;6.07;1.63;;;17.00;99.90;;;;;;5012314;28;20258;-51
2022/10/02 11:13:34;;;;;;;11.10;1.67;;;16.90;99.90;;;;;;5013901;28;20208;-51
2022/10/02 11:16:20;;;;;;;6.63;1.57;;;16.90;99.90;;;;;;5008967;28;20199;-52
2022/10/02 11:18:49;;;;;;;8.30;2.00;;;16.80;99.90;;;;;;5012739;28;20339;-52
2022/10/02 11:21:40;;;;;;;15.93;2.50;;;16.80;99.90;;;;;;5015118;28;20210;-50
2022/10/02 11:24:37;;;;;;;6.47;1.50;;;16.90;99.90;;;;;;5014980;28;20627;-51
2022/10/02 11:27:20;;;;;;;6.17;1.87;;;16.80;99.90;;;;;;5016339;28;20567;-51
2022/10/02 11:29:59;;;;;;;7.97;1.60;;;16.80;99.90;;;;;;5011871;28;20766;-52
2022/10/02 11:33:09;;;;;;;9.87;1.63;;;16.80;99.90;;;;;;5017075;28;20200;-51
2022/10/02 11:36:04;;;;;;;11.20;1.47;;;16.90;99.90;;;;;;5016442;28;20662;-50
2022/10/02 11:38:52;;;;;;;8.53;1.27;;;16.80;99.90;;;;;;5013594;28;20204;-51
2022/10/02 11:41:22;;;;;;;8.43;1.67;;;16.80;1.00;;;;;;5012266;28;20252;-51
2022/10/02 11:44:07;;;;;;;5.50;1.17;;;16.80;1.00;;;;;;5011040;28;20205;-51
2022/10/02 11:46:55;;;;;;;6.17;1.70;;;16.80;1.00;;;;;;5008641;28;20208;-50
2022/10/02 11:49:57;;;;;;;7.77;2.47;;;16.90;99.90;;;;;;5014651;28;20215;-51
2022/10/02 11:53:05;;;;;;;8.40;1.53;;;17.00;99.90;;;;;;5012152;28;20231;-50
2022/10/02 11:55:36;;;;;;;5.13;1.60;;;17.10;1.00;;;;;;5011573;28;20249;-54
2022/10/02 11:58:24;;;;;;;8.87;1.80;;;17.10;99.90;;;;;;5009009;28;20193;-52
2022/10/02 12:01:04;;;;;;;7.67;1.80;;;17.30;99.90;;;;;;5009679;28;20202;-49
2022/10/02 12:03:37;;;;;;;7.03;2.03;;;17.80;5.50;;;;;;5011854;28;20495;-51
2022/10/02 12:06:28;;;;;;;9.20;2.30;;;17.90;1.00;;;;;;5018093;28;20579;-51
2022/10/02 12:09:47;;;;;;;7.87;1.70;;;18.20;1.00;;;;;;5007460;28;20307;-53
2022/10/02 12:12:20;;;;;;;5.93;1.77;;;18.30;1.00;;;;;;5006724;28;20203;-52
2022/10/02 12:15:09;;;;;;;9.67;1.60;;;18.70;55.80;;;;;;5016872;28;20204;-52
2022/10/02 12:17:52;;;;;;;8.57;1.57;;;18.50;1.00;;;;;;5021023;28;20652;-51
2022/10/02 12:27:17;;;;;;;6.97;1.70;;;18.40;1.00;;;;;;5008738;28;20208;-50
2022/10/02 12:29:57;;;;;;;10.60;2.10;;;18.90;1.00;;;;;;5011998;28;20221;-52
2022/10/02 12:32:40;;;;;;;6.57;2.03;;;19.00;1.00;;;;;;5008630;28;20197;-52
2022/10/02 12:35:34;;;;;;;7.17;1.90;;;18.60;1.00;;;;;;5015531;28;20202;-51
2022/10/02 12:38:39;;;;;;;9.50;2.30;;;18.20;80.60;;;;;;5007216;28;20221;-51
2022/10/02 12:41:16;;;;;;;4.67;1.80;;;18.00;1.00;;;;;;5014755;28;20204;-51
2022/10/02 12:44:15;;;;;;;8.00;1.60;;;18.30;1.00;;;;;;5015700;28;20327;-51
2022/10/02 12:46:58;;;;;;;4.83;1.47;;;18.70;1.00;;;;;;5012035;28;20257;-52
2022/10/02 12:49:34;;;;;;;5.10;1.70;;;19.10;1.00;;;;;;5014350;28;20259;-51
2022/10/02 12:52:31;;;;;;;9.03;2.13;;;19.00;99.90;;;;;;5016314;28;20196;-50
2022/10/02 12:55:10;;;;;;;7.70;2.13;;;19.30;1.00;;;;;;5012474;28;20291;-51
2022/10/02 12:58:00;;;;;;;7.43;1.73;;;19.50;99.90;;;;;;5014132;28;20210;-52
2022/10/02 13:00:58;;;;;;;6.27;1.50;;;19.80;94.50;;;;;;5014803;28;20197;-51
2022/10/02 13:03:53;;;;;;;4.33;1.40;;;19.40;99.90;;;;;;5014407;28;20245;-51
2022/10/02 13:06:54;;;;;;;4.23;2.10;;;19.40;99.90;;;;;;5014945;28;20534;-53
2022/10/02 13:09:43;;;;;;;6.53;1.60;;;19.50;99.90;;;;;;5014470;28;20226;-53
2022/10/02 13:12:36;;;;;;;7.07;1.57;;;19.50;99.90;;;;;;5012215;28;20530;-51
2022/10/02 13:15:21;;;;;;;3.47;1.17;;;19.60;99.90;;;;;;5012604;28;20613;-53
2022/10/02 13:18:08;;;;;;;6.03;1.53;;;19.50;99.90;;;;;;5011569;28;20200;-50
2022/10/02 13:21:06;;;;;;;6.80;1.53;;;19.90;4.30;;;;;;5020328;28;20207;-52
2022/10/02 13:24:07;;;;;;;7.30;1.70;;;20.20;1.00;;;;;;5016846;28;20209;-52
2022/10/02 13:26:55;;;;;;;6.13;1.37;;;20.10;1.00;;;;;;5016319;28;20210;-52
2022/10/02 13:29:30;;;;;;;7.63;1.47;;;19.60;90.10;;;;;;5019198;28;20664;-52
2022/10/02 13:32:04;;;;;;;4.37;1.70;;;19.10;99.90;;;;;;5016787;28;20195;-51
2022/10/02 13:35:04;;;;;;;3.03;1.17;;;19.00;37.00;;;;;;5018894;28;20653;-52
2022/10/02 13:37:50;;;;;;;7.50;1.73;;;19.00;1.00;;;;;;5019088;28;20195;-50
2022/10/02 13:40:22;;;;;;;5.20;1.30;;;19.00;1.00;;;;;;5019988;28;20209;-51
2022/10/02 13:43:11;;;;;;;6.67;1.57;;;19.10;1.00;;;;;;5019588;28;20643;-52
2022/10/02 13:45:48;;;;;;;12.77;1.60;;;18.90;87.20;;;;;;5007617;28;20228;-54
2022/10/02 13:48:30;;;;;;;9.70;1.90;;;18.90;9.80;;;;;;5012072;28;21002;-50
2022/10/02 13:51:06;;;;;;;5.77;1.63;;;18.80;1.00;;;;;;5014409;28;20206;-51
2022/10/02 13:53:58;;;;;;;5.33;1.47;;;18.70;1.00;;;;;;5009158;28;20227;-50
2022/10/02 13:56:48;;;;;;;5.63;1.63;;;18.50;94.60;;;;;;5010637;28;20206;-50
2022/10/02 13:59:27;;;;;;;4.27;1.10;;;18.60;20.50;;;;;;5018991;28;20210;-50
2022/10/02 14:02:05;;;;;;;6.57;1.20;;;18.50;99.90;;;;;;5018525;28;20590;-51
2022/10/02 14:04:55;;;;;;;9.37;1.77;;;18.10;99.90;;;;;;5023073;28;20201;-51
2022/10/02 14:07:35;;;;;;;5.93;1.40;;;18.00;1.00;;;;;;5019803;28;20206;-55
2022/10/02 14:10:07;;;;;;;7.73;1.70;;;18.10;1.00;;;;;;5024109;28;20224;-51